createdAt,value
2023-01-11T00:00:45.866Z,97.70
2023-01-11T00:03:14.069Z,97.50
2023-01-11T00:05:43.348Z,97.20
2023-01-11T00:08:12.434Z,97.10
2023-01-11T00:10:42.228Z,97.00
2023-01-11T00:13:10.113Z,97.00
2023-01-11T00:15:40.398Z,97.00
2023-01-11T00:18:08.500Z,96.90
2023-01-11T00:20:36.535Z,96.80
2023-01-11T00:23:04.483Z,96.90
2023-01-11T00:25:32.387Z,97.00
2023-01-11T00:28:01.715Z,97.20
2023-01-11T00:30:29.642Z,97.30
2023-01-11T00:32:58.335Z,97.20
2023-01-11T00:35:27.283Z,97.20
2023-01-11T00:37:55.517Z,97.20
2023-01-11T00:40:24.246Z,97.20
2023-01-11T00:43:10.191Z,97.30
2023-01-11T00:45:57.382Z,97.10
2023-01-11T00:48:25.481Z,97.20
2023-01-11T00:50:55.691Z,97.80
2023-01-11T00:53:23.707Z,98.50
2023-01-11T00:55:51.637Z,98.60
2023-01-11T00:58:19.524Z,98.30
2023-01-11T01:00:48.991Z,98.40
2023-01-11T01:03:16.914Z,98.80
2023-01-11T01:05:44.931Z,98.70
2023-01-11T01:08:12.854Z,98.70
2023-01-11T01:10:40.816Z,97.80
2023-01-11T01:13:29.724Z,97.60
2023-01-11T01:15:59.681Z,97.40
2023-01-11T01:18:27.606Z,97.60
2023-01-11T01:20:55.520Z,97.70
2023-01-11T01:23:23.474Z,97.70
2023-01-11T01:25:51.432Z,97.80
2023-01-11T01:28:21.999Z,98.00
2023-01-11T01:30:52.122Z,97.70
2023-01-11T01:33:21.466Z,97.60
2023-01-11T01:35:49.513Z,97.90
2023-01-11T01:38:17.720Z,97.60
2023-01-11T01:40:47.423Z,97.50
2023-01-11T01:43:17.722Z,97.60
2023-01-11T01:45:45.670Z,97.60
2023-01-11T01:48:16.951Z,97.50
2023-01-11T01:50:50.372Z,97.60
2023-01-11T01:53:22.459Z,97.70
2023-01-11T01:55:54.246Z,97.60
2023-01-11T01:58:27.857Z,97.50
2023-01-11T02:00:55.944Z,97.50
2023-01-11T02:03:27.905Z,97.50
2023-01-11T02:05:57.338Z,97.90
2023-01-11T02:08:34.014Z,98.00
2023-01-11T02:11:03.319Z,98.10
2023-01-11T02:13:45.834Z,98.30
2023-01-11T02:16:13.955Z,98.20
2023-01-11T02:18:42.143Z,97.80
2023-01-11T02:21:23.026Z,97.60
2023-01-11T02:24:19.956Z,97.50
2023-01-11T02:27:06.515Z,97.50
2023-01-11T02:29:45.460Z,97.50
2023-01-11T02:32:25.028Z,97.30
2023-01-11T02:35:06.621Z,97.40
2023-01-11T02:37:44.063Z,97.50
2023-01-11T02:40:22.956Z,97.20
2023-01-11T02:43:11.858Z,97.30
2023-01-11T02:45:46.115Z,97.60
2023-01-11T02:48:20.157Z,97.40
2023-01-11T02:50:54.879Z,97.50
2023-01-11T02:53:28.754Z,97.70
2023-01-11T02:56:00.733Z,97.50
2023-01-11T02:58:31.018Z,97.50
2023-01-11T03:01:01.525Z,97.50
2023-01-11T03:03:29.533Z,97.50
2023-01-11T03:06:01.651Z,97.40
2023-01-11T03:08:49.125Z,97.50
2023-01-11T03:11:45.941Z,97.70
2023-01-11T03:14:22.376Z,97.60
2023-01-11T03:16:56.745Z,97.90
2023-01-11T03:19:33.727Z,97.50
2023-01-11T03:22:08.922Z,97.70
2023-01-11T03:24:45.641Z,97.50
2023-01-11T03:27:22.604Z,97.60
2023-01-11T03:29:55.417Z,97.70
2023-01-11T03:32:35.893Z,97.80
2023-01-11T03:35:14.127Z,97.80
2023-01-11T03:37:48.485Z,97.70
2023-01-11T03:40:20.460Z,98.00
2023-01-11T03:43:09.533Z,98.30
2023-01-11T03:45:40.642Z,98.50
2023-01-11T03:48:14.117Z,98.50
2023-01-11T03:50:42.880Z,98.30
2023-01-11T03:53:12.365Z,98.30
2023-01-11T03:55:43.193Z,98.00
2023-01-11T03:58:11.394Z,97.80
2023-01-11T04:00:39.738Z,97.80
2023-01-11T04:03:09.696Z,98.00
2023-01-11T04:05:39.550Z,97.90
2023-01-11T04:08:07.534Z,97.80
2023-01-11T04:10:35.446Z,97.90
2023-01-11T04:13:03.404Z,98.30
2023-01-11T04:15:31.946Z,98.40
2023-01-11T04:18:04.767Z,98.70
2023-01-11T04:20:34.685Z,98.70
2023-01-11T04:23:02.776Z,99.10
2023-01-11T04:25:31.316Z,98.90
2023-01-11T04:27:59.526Z,99.40
2023-01-11T04:30:28.011Z,99.10
2023-01-11T04:32:58.454Z,99.10
2023-01-11T04:35:26.455Z,98.90
2023-01-11T04:37:56.239Z,98.70
2023-01-11T04:40:24.599Z,98.70
2023-01-11T04:42:52.040Z,98.90
2023-01-11T04:45:20.966Z,98.70
2023-01-11T04:47:54.867Z,98.60
2023-01-11T04:50:22.808Z,98.80
2023-01-11T04:52:50.715Z,99.00
2023-01-11T04:55:20.478Z,98.60
2023-01-11T04:57:48.912Z,98.50
2023-01-11T05:00:17.653Z,98.40
2023-01-11T05:02:45.722Z,98.50
2023-01-11T05:05:13.689Z,98.50
2023-01-11T05:07:41.571Z,98.60
2023-01-11T05:10:10.592Z,98.70
2023-01-11T05:12:39.836Z,98.70
2023-01-11T05:15:09.367Z,99.40
2023-01-11T05:17:37.375Z,99.10
2023-01-11T05:20:09.300Z,99.10
2023-01-11T05:22:37.166Z,98.80
2023-01-11T05:25:05.797Z,99.00
2023-01-11T05:27:33.908Z,98.90
2023-01-11T05:30:03.196Z,99.00
2023-01-11T05:32:31.992Z,99.20
2023-01-11T05:35:00.142Z,99.20
2023-01-11T05:37:28.140Z,99.20
2023-01-11T05:39:56.200Z,99.70
2023-01-11T05:42:24.326Z,99.90
2023-01-11T05:45:09.616Z,99.80
2023-01-11T05:47:38.900Z,99.50
2023-01-11T05:50:07.549Z,99.40
2023-01-11T05:52:35.635Z,99.40
2023-01-11T05:55:03.525Z,99.40
2023-01-11T05:57:31.452Z,99.10
2023-01-11T05:59:59.599Z,99.40
2023-01-11T06:02:27.592Z,99.60
2023-01-11T06:04:56.967Z,99.30
2023-01-11T06:07:25.547Z,99.70
2023-01-11T06:09:53.496Z,99.90
2023-01-11T06:12:21.429Z,99.40
2023-01-11T06:14:49.350Z,99.50
2023-01-11T06:17:17.395Z,99.80
2023-01-11T06:19:45.692Z,99.60
2023-01-11T06:22:15.109Z,99.90
2023-01-11T06:24:43.050Z,99.60
2023-01-11T06:27:11.076Z,99.90
2023-01-11T06:29:39.195Z,99.50
2023-01-11T06:32:08.680Z,99.20
2023-01-11T06:34:36.732Z,98.90
2023-01-11T06:37:04.662Z,99.10
2023-01-11T06:39:33.913Z,99.20
2023-01-11T06:42:01.811Z,99.40
2023-01-11T06:44:29.754Z,99.00
2023-01-11T06:46:58.731Z,99.60
2023-01-11T06:49:26.643Z,99.30
2023-01-11T06:51:54.534Z,99.40
2023-01-11T06:54:25.471Z,99.50
2023-01-11T06:56:55.009Z,99.80
2023-01-11T06:59:22.920Z,99.70
2023-01-11T07:01:51.127Z,99.90
2023-01-11T07:04:19.800Z,99.80
2023-01-11T07:06:47.732Z,99.50
2023-01-11T07:09:15.758Z,99.70
2023-01-11T07:11:43.642Z,99.90
2023-01-11T07:14:19.758Z,99.80
2023-01-11T07:16:48.216Z,99.60
2023-01-11T07:19:18.024Z,99.50
2023-01-11T07:21:45.970Z,99.90
2023-01-11T07:24:13.981Z,99.90
2023-01-11T07:26:42.135Z,99.90
2023-01-11T07:29:10.236Z,99.90
2023-01-11T07:31:39.552Z,99.90
2023-01-11T07:34:07.521Z,99.90
2023-01-11T07:36:39.381Z,99.90
2023-01-11T07:39:08.721Z,99.90
2023-01-11T07:41:54.573Z,99.90
2023-01-11T07:44:22.587Z,99.90
2023-01-11T07:46:52.124Z,99.90
2023-01-11T07:49:20.403Z,99.90
2023-01-11T07:51:48.602Z,99.90
2023-01-11T07:54:16.976Z,99.90
2023-01-11T07:56:45.014Z,99.90
2023-01-11T07:59:13.247Z,99.90
2023-01-11T08:01:41.152Z,99.90
2023-01-11T08:04:13.231Z,99.90
2023-01-11T08:06:42.005Z,99.90
2023-01-11T08:09:10.574Z,99.90
2023-01-11T08:11:56.230Z,99.90
2023-01-11T08:14:42.452Z,99.90
2023-01-11T08:17:12.298Z,99.90
2023-01-11T08:19:41.973Z,99.90
2023-01-11T08:22:10.412Z,99.90
2023-01-11T08:24:38.417Z,99.90
2023-01-11T08:27:06.477Z,99.90
2023-01-11T08:29:34.490Z,99.90
2023-01-11T08:32:03.282Z,99.90
2023-01-11T08:34:33.008Z,99.90
2023-01-11T08:37:03.259Z,99.90
2023-01-11T08:39:31.216Z,99.90
2023-01-11T08:41:59.246Z,99.90
2023-01-11T08:44:35.035Z,99.90
2023-01-11T08:47:03.434Z,99.80
2023-01-11T08:49:31.428Z,99.90
2023-01-11T08:51:59.420Z,99.50
2023-01-11T08:54:28.741Z,99.60
2023-01-11T08:56:56.707Z,99.50
2023-01-11T08:59:24.614Z,98.80
2023-01-11T09:01:52.601Z,99.10
2023-01-11T09:04:25.295Z,98.90
2023-01-11T09:06:54.045Z,98.30
2023-01-11T09:09:22.111Z,98.30
2023-01-11T09:12:00.240Z,98.90
2023-01-11T09:14:29.244Z,99.20
2023-01-11T09:16:57.488Z,98.90
2023-01-11T09:19:25.418Z,98.50
2023-01-11T09:21:56.062Z,98.60
2023-01-11T09:24:24.033Z,98.80
2023-01-11T09:26:53.389Z,98.10
2023-01-11T09:29:21.606Z,98.30
2023-01-11T09:31:49.544Z,98.80
2023-01-11T09:34:17.700Z,98.60
2023-01-11T09:36:48.578Z,98.80
2023-01-11T09:39:19.527Z,98.40
2023-01-11T09:42:11.135Z,98.40
2023-01-11T09:44:49.739Z,98.70
2023-01-11T09:47:28.375Z,98.20
2023-01-11T09:49:59.553Z,98.90
2023-01-11T09:52:33.182Z,98.50
2023-01-11T09:55:02.295Z,98.40
2023-01-11T09:57:46.644Z,98.60
2023-01-11T10:00:25.414Z,98.50
2023-01-11T10:03:12.191Z,98.20
2023-01-11T10:05:55.896Z,98.30
2023-01-11T10:18:28.163Z,98.60
2023-01-11T10:18:39.579Z,98.80
2023-01-11T10:20:37.738Z,98.60
2023-01-11T10:23:12.341Z,98.20
2023-01-11T10:25:50.272Z,98.40
2023-01-11T10:28:26.810Z,98.60
2023-01-11T10:31:28.587Z,98.60
2023-01-11T10:34:18.484Z,98.70
2023-01-11T10:37:10.820Z,98.30
2023-01-11T10:40:14.547Z,98.40
2023-01-11T10:42:49.286Z,97.60
2023-01-11T10:45:20.979Z,97.80
2023-01-11T10:47:57.992Z,97.50
2023-01-11T10:50:31.357Z,98.00
2023-01-11T10:53:07.467Z,98.00
2023-01-11T10:55:45.677Z,97.80
2023-01-11T10:58:24.952Z,97.30
2023-01-11T11:01:04.846Z,96.90
2023-01-11T11:03:47.678Z,96.80
2023-01-11T11:06:24.194Z,96.50
2023-01-11T11:08:58.642Z,96.50
2023-01-11T11:11:32.154Z,96.50
2023-01-11T11:14:05.221Z,96.70
2023-01-11T11:16:48.743Z,96.80
2023-01-11T11:19:22.903Z,96.30
2023-01-11T11:21:52.353Z,96.40
2023-01-11T11:24:27.576Z,96.30
2023-01-11T11:27:02.142Z,96.40
2023-01-11T11:29:30.786Z,96.60
2023-01-11T11:32:00.894Z,96.70
2023-01-11T11:34:30.974Z,96.50
2023-01-11T11:37:01.604Z,96.60
2023-01-11T11:39:31.731Z,96.80
2023-01-11T11:42:08.044Z,96.10
2023-01-11T11:44:36.447Z,95.80
2023-01-11T11:47:06.266Z,96.00
2023-01-11T11:49:38.343Z,96.10
2023-01-11T11:52:07.790Z,96.10
2023-01-11T11:54:40.586Z,96.30
2023-01-11T11:57:22.582Z,96.70
2023-01-11T11:59:53.574Z,96.80
2023-01-11T12:02:25.999Z,96.40
2023-01-11T12:04:57.456Z,95.90
2023-01-11T12:07:28.020Z,96.20
2023-01-11T12:10:00.872Z,96.00
2023-01-11T12:12:29.740Z,96.00
2023-01-11T12:15:09.831Z,95.90
2023-01-11T12:17:38.346Z,95.90
2023-01-11T12:20:28.914Z,95.90
2023-01-11T12:23:21.564Z,95.90
2023-01-11T12:26:11.711Z,96.50
2023-01-11T12:28:59.408Z,96.60
2023-01-11T12:31:34.188Z,96.20
2023-01-11T12:34:10.336Z,96.70
2023-01-11T12:36:47.321Z,96.60
2023-01-11T12:39:22.313Z,96.50
2023-01-11T12:42:04.886Z,96.60
2023-01-11T12:44:53.715Z,96.20
2023-01-11T12:47:42.072Z,96.30
2023-01-11T12:50:18.521Z,96.70
2023-01-11T12:53:27.249Z,96.60
2023-01-11T12:56:10.747Z,97.00
2023-01-11T12:58:44.751Z,96.80
2023-01-11T13:01:37.947Z,96.70
2023-01-11T13:04:51.765Z,96.70
2023-01-11T13:07:38.408Z,97.00
2023-01-11T13:10:24.907Z,96.80
2023-01-11T13:12:59.735Z,97.40
2023-01-11T13:15:41.840Z,97.50
2023-01-11T13:18:19.056Z,97.40
2023-01-11T13:21:01.156Z,97.40
2023-01-11T13:23:39.178Z,97.40
2023-01-11T13:26:17.999Z,97.00
2023-01-11T13:28:50.800Z,97.50
2023-01-11T13:31:19.817Z,97.10
2023-01-11T13:33:54.674Z,97.70
2023-01-11T13:36:26.718Z,97.30
2023-01-11T13:38:59.721Z,97.40
2023-01-11T13:41:33.953Z,98.30
2023-01-11T13:44:06.919Z,98.50
2023-01-11T13:46:47.006Z,98.70
2023-01-11T13:49:27.560Z,98.30
2023-01-11T13:51:59.497Z,98.20
2023-01-11T13:54:36.617Z,98.00
2023-01-11T13:57:11.380Z,98.10
2023-01-11T13:59:45.890Z,98.10
2023-01-11T14:02:22.968Z,98.10
2023-01-11T14:04:54.534Z,98.20
2023-01-11T14:07:33.925Z,98.30
2023-01-11T14:10:21.429Z,98.40
2023-01-11T14:13:06.441Z,98.70
2023-01-11T14:15:42.091Z,99.20
2023-01-11T14:18:20.232Z,99.00
2023-01-11T14:20:56.000Z,99.30
2023-01-11T14:23:31.448Z,99.20
2023-01-11T14:26:21.647Z,99.60
2023-01-11T14:29:11.647Z,99.90
2023-01-11T14:31:55.544Z,99.90
2023-01-11T14:34:55.303Z,99.90
2023-01-11T14:37:52.790Z,99.80
2023-01-11T14:40:52.575Z,99.50
2023-01-11T14:43:40.638Z,99.60
2023-01-11T14:46:26.628Z,99.40
2023-01-11T14:49:04.225Z,99.70
2023-01-11T14:51:41.224Z,99.90
2023-01-11T14:54:14.672Z,99.90
2023-01-11T14:56:52.052Z,99.90
2023-01-11T14:59:33.763Z,99.90
2023-01-11T15:02:25.317Z,99.90
2023-01-11T15:05:30.927Z,99.80
2023-01-11T15:08:17.060Z,99.90
2023-01-11T15:10:56.292Z,99.90
2023-01-11T15:13:26.465Z,99.90
2023-01-11T15:16:26.490Z,99.90
2023-01-11T15:18:56.563Z,99.90
2023-01-11T15:21:27.147Z,99.80
2023-01-11T15:23:57.789Z,99.60
2023-01-11T15:26:27.815Z,99.50
2023-01-11T15:28:57.230Z,99.70
2023-01-11T15:31:35.028Z,99.70
2023-01-11T15:34:20.223Z,99.70
2023-01-11T15:36:57.566Z,99.60
2023-01-11T15:39:34.606Z,99.80
2023-01-11T15:42:25.616Z,99.80
2023-01-11T15:45:22.114Z,99.80
2023-01-11T15:48:11.662Z,99.80
2023-01-11T15:50:57.896Z,99.70
2023-01-11T15:54:02.427Z,99.60
2023-01-11T15:56:52.669Z,99.90
2023-01-11T15:59:58.150Z,99.80
2023-01-11T16:03:13.181Z,99.70
2023-01-11T16:05:51.165Z,99.90
2023-01-11T16:08:27.222Z,99.90
2023-01-11T16:11:12.098Z,99.90
2023-01-11T16:14:08.655Z,99.90
2023-01-11T16:16:41.344Z,99.90
2023-01-11T16:19:16.535Z,99.90
2023-01-11T16:21:49.784Z,99.90
2023-01-11T16:24:20.845Z,99.90
2023-01-11T16:26:54.190Z,99.90
2023-01-11T16:29:25.475Z,99.90
2023-01-11T16:32:00.285Z,99.90
2023-01-11T16:34:29.735Z,99.90
2023-01-11T16:36:59.239Z,99.90
2023-01-11T16:39:30.316Z,99.90
2023-01-11T16:42:01.662Z,99.90
2023-01-11T16:44:41.458Z,99.90
2023-01-11T16:47:15.260Z,99.90
2023-01-11T16:49:48.889Z,99.90
2023-01-11T16:52:43.568Z,99.90
2023-01-11T16:55:17.564Z,99.90
2023-01-11T16:57:48.718Z,99.90
2023-01-11T17:00:35.677Z,99.90
2023-01-11T17:03:17.953Z,99.90
2023-01-11T17:05:59.107Z,99.90
2023-01-11T17:08:31.680Z,99.90
2023-01-11T17:11:03.194Z,99.90
2023-01-11T17:13:59.044Z,99.90
2023-01-11T17:16:31.293Z,99.90
2023-01-11T17:19:02.484Z,99.90
2023-01-11T17:21:31.153Z,99.90
2023-01-11T17:24:03.634Z,99.90
2023-01-11T17:26:36.688Z,99.90
2023-01-11T17:29:06.943Z,99.90
2023-01-11T17:31:37.830Z,99.90
2023-01-11T17:34:08.612Z,99.90
2023-01-11T17:36:38.012Z,99.90
2023-01-11T17:39:07.741Z,99.90
2023-01-11T17:41:54.365Z,99.90
2023-01-11T17:44:41.885Z,99.90
2023-01-11T17:47:13.136Z,99.90
2023-01-11T17:49:41.625Z,99.90
2023-01-11T17:52:11.968Z,99.90
2023-01-11T17:54:41.444Z,99.90
2023-01-11T17:57:10.879Z,99.90
2023-01-11T17:59:38.956Z,99.90
2023-01-11T18:02:13.254Z,99.90
2023-01-11T18:04:41.776Z,99.90
2023-01-11T18:07:16.792Z,99.90
2023-01-11T18:09:48.953Z,99.90
2023-01-11T18:12:20.790Z,99.90
2023-01-11T18:14:52.669Z,99.90
2023-01-11T18:17:42.091Z,99.90
2023-01-11T18:20:40.127Z,99.90
2023-01-11T18:23:22.566Z,99.90
2023-01-11T18:26:26.964Z,99.90
2023-01-11T18:28:55.004Z,99.90
2023-01-11T18:31:22.958Z,99.90
2023-01-11T18:33:50.986Z,99.90
2023-01-11T18:36:26.283Z,99.90
2023-01-11T18:38:54.338Z,99.90
2023-01-11T18:41:42.619Z,99.90
2023-01-11T18:44:12.755Z,99.90
2023-01-11T18:46:40.892Z,99.90
2023-01-11T18:49:09.517Z,99.90
2023-01-11T18:51:39.748Z,99.90
2023-01-11T18:54:08.016Z,99.90
2023-01-11T18:56:37.621Z,99.90
2023-01-11T18:59:05.665Z,99.90
2023-01-11T19:01:46.827Z,99.90
2023-01-11T19:04:21.643Z,99.90
2023-01-11T19:06:52.374Z,99.90
2023-01-11T19:09:20.357Z,99.90
2023-01-11T19:11:49.638Z,99.90
2023-01-11T19:14:17.538Z,99.90
2023-01-11T19:16:45.513Z,99.90
2023-01-11T19:19:13.640Z,99.90
2023-01-11T19:21:41.568Z,99.90
2023-01-11T19:24:09.786Z,99.90
2023-01-11T19:26:37.812Z,99.90
2023-01-11T19:29:07.249Z,99.90
2023-01-11T19:31:35.199Z,99.90
2023-01-11T19:34:03.275Z,99.90
2023-01-11T19:36:32.153Z,99.90
2023-01-11T19:39:00.122Z,99.90
2023-01-11T19:41:27.993Z,99.90
2023-01-11T19:43:56.030Z,99.90
2023-01-11T19:46:31.742Z,99.90
2023-01-11T19:49:00.263Z,99.90
2023-01-11T19:51:28.267Z,99.90
2023-01-11T19:53:56.280Z,99.90
2023-01-11T19:56:24.387Z,99.90
2023-01-11T19:58:52.304Z,99.90
2023-01-11T20:01:20.561Z,99.90
2023-01-11T20:03:49.996Z,99.90
2023-01-11T20:06:17.896Z,99.90
2023-01-11T20:08:45.820Z,99.90
2023-01-11T20:11:15.623Z,99.90
2023-01-11T20:13:45.433Z,99.90
2023-01-11T20:16:14.606Z,99.90
2023-01-11T20:18:43.195Z,99.90
2023-01-11T20:21:13.534Z,99.90
2023-01-11T20:23:41.466Z,99.90
2023-01-11T20:26:14.783Z,99.90
2023-01-11T20:28:43.112Z,99.90
2023-01-11T20:31:11.624Z,99.90
2023-01-11T20:33:39.520Z,99.90
2023-01-11T20:36:17.058Z,99.90
2023-01-11T20:38:45.717Z,99.90
2023-01-11T20:41:35.774Z,99.90
2023-01-11T20:44:03.766Z,99.90
2023-01-11T20:46:31.928Z,99.90
2023-01-11T20:49:00.110Z,99.90
2023-01-11T20:51:29.449Z,99.90
2023-01-11T20:53:57.392Z,99.90
2023-01-11T20:56:25.324Z,99.90
2023-01-11T20:58:53.382Z,99.90
2023-01-11T21:01:23.940Z,99.90
2023-01-11T21:03:51.924Z,99.90
2023-01-11T21:06:19.904Z,99.90
2023-01-11T21:08:49.660Z,99.90
2023-01-11T21:11:17.586Z,99.90
2023-01-11T21:13:45.624Z,99.90
2023-01-11T21:16:15.448Z,99.90
2023-01-11T21:18:44.616Z,99.90
2023-01-11T21:21:14.144Z,99.90
2023-01-11T21:23:42.197Z,99.90
2023-01-11T21:26:15.380Z,99.90
2023-01-11T21:28:44.260Z,99.90
2023-01-11T21:31:13.555Z,99.90
2023-01-11T21:33:41.489Z,99.90
2023-01-11T21:36:12.243Z,99.90
2023-01-11T21:38:40.429Z,99.90
2023-01-11T21:41:10.463Z,99.90
2023-01-11T21:43:39.911Z,99.90
2023-01-11T21:46:08.370Z,99.90
2023-01-11T21:48:36.576Z,99.90
2023-01-11T21:51:07.782Z,99.90
2023-01-11T21:53:35.837Z,99.90
2023-01-11T21:56:04.704Z,99.90
2023-01-11T21:58:32.649Z,99.90
2023-01-11T22:01:10.295Z,99.90
2023-01-11T22:03:38.441Z,99.90
2023-01-11T22:06:07.099Z,99.90
2023-01-11T22:08:36.087Z,99.90
2023-01-11T22:11:06.203Z,99.90
2023-01-11T22:13:35.834Z,99.90
2023-01-11T22:16:07.262Z,99.90
2023-01-11T22:18:36.671Z,99.90
2023-01-11T22:21:09.202Z,99.90
2023-01-11T22:23:37.699Z,99.90
2023-01-11T22:26:06.649Z,99.90
2023-01-11T22:28:55.120Z,99.90
2023-01-11T22:31:25.699Z,99.90
2023-01-11T22:33:53.900Z,99.90
2023-01-11T22:36:23.123Z,99.90
2023-01-11T22:38:51.380Z,99.90
2023-01-11T22:41:20.057Z,99.90
2023-01-11T22:43:49.454Z,99.90
2023-01-11T22:46:19.533Z,99.90
2023-01-11T22:48:49.668Z,99.90
2023-01-11T22:51:19.266Z,99.90
2023-01-11T22:53:49.197Z,99.90
2023-01-11T22:56:19.274Z,99.90
2023-01-11T22:58:47.785Z,99.90
2023-01-11T23:01:17.876Z,99.90
2023-01-11T23:03:46.232Z,99.90
2023-01-11T23:06:17.729Z,99.90
2023-01-11T23:08:46.073Z,99.90
2023-01-11T23:11:36.122Z,99.90
2023-01-11T23:14:04.291Z,99.90
2023-01-11T23:16:33.037Z,99.90
2023-01-11T23:19:01.127Z,99.90
2023-01-11T23:21:30.571Z,99.90
2023-01-11T23:23:58.594Z,99.90
2023-01-11T23:26:26.500Z,99.90
2023-01-11T23:28:54.426Z,99.90
2023-01-11T23:31:23.974Z,99.90
2023-01-11T23:33:54.156Z,99.90
2023-01-11T23:36:24.578Z,99.90
2023-01-11T23:38:53.859Z,99.90
2023-01-11T23:41:40.197Z,99.90
2023-01-11T23:44:10.319Z,99.90
2023-01-11T23:46:56.683Z,99.90
2023-01-11T23:49:25.552Z,99.90
2023-01-11T23:51:54.203Z,99.90
2023-01-11T23:54:23.890Z,99.90
2023-01-11T23:56:51.861Z,99.90
2023-01-11T23:59:19.804Z,99.90
